createdAt,value
2019-01-09T00:00:17.137Z,55.40
2019-01-09T00:00:48.281Z,55.40
2019-01-09T00:01:19.744Z,55.40
2019-01-09T00:01:50.897Z,55.50
2019-01-09T00:02:22.064Z,55.60
2019-01-09T00:02:53.532Z,55.60
2019-01-09T00:03:24.921Z,55.60
2019-01-09T00:03:56.069Z,55.70
2019-01-09T00:04:27.213Z,55.60
2019-01-09T00:04:58.360Z,55.60
2019-01-09T00:05:29.514Z,55.60
2019-01-09T00:06:00.668Z,55.70
2019-01-09T00:06:31.822Z,55.60
2019-01-09T00:07:03.288Z,55.60
2019-01-09T00:07:34.814Z,55.60
2019-01-09T00:08:06.051Z,55.60
2019-01-09T00:08:37.804Z,55.50
2019-01-09T00:09:09.240Z,55.60
2019-01-09T00:09:40.678Z,55.60
2019-01-09T00:10:11.834Z,55.60
2019-01-09T00:10:42.986Z,55.60
2019-01-09T00:11:14.486Z,55.40
2019-01-09T00:11:45.636Z,55.50
2019-01-09T00:12:16.810Z,55.60
2019-01-09T00:12:48.279Z,55.50
2019-01-09T00:13:19.725Z,55.50
2019-01-09T00:13:50.882Z,55.50
2019-01-09T00:14:22.024Z,55.40
2019-01-09T00:14:53.174Z,55.30
2019-01-09T00:15:24.320Z,55.30
2019-01-09T00:15:55.463Z,55.30
2019-01-09T00:16:26.612Z,55.90
2019-01-09T00:16:57.760Z,55.30
2019-01-09T00:17:29.364Z,55.20
2019-01-09T00:18:00.516Z,55.10
2019-01-09T00:18:31.666Z,55.20
2019-01-09T00:19:02.819Z,55.10
2019-01-09T00:19:34.012Z,55.10
2019-01-09T00:20:05.151Z,55.20
2019-01-09T00:20:36.552Z,55.30
2019-01-09T00:21:07.702Z,55.30
2019-01-09T00:21:38.855Z,55.40
2019-01-09T00:22:10.040Z,55.40
2019-01-09T00:22:41.275Z,55.30
2019-01-09T00:23:12.817Z,55.30
2019-01-09T00:23:43.967Z,55.30
2019-01-09T00:24:15.112Z,55.40
2019-01-09T00:24:46.260Z,55.30
2019-01-09T00:25:17.412Z,55.40
2019-01-09T00:25:48.876Z,55.30
2019-01-09T00:26:20.032Z,55.40
2019-01-09T00:26:51.180Z,55.40
2019-01-09T00:27:22.574Z,55.30
2019-01-09T00:27:53.752Z,55.40
2019-01-09T00:28:24.901Z,55.40
2019-01-09T00:28:56.049Z,55.30
2019-01-09T00:29:27.201Z,55.30
2019-01-09T00:29:58.344Z,55.30
2019-01-09T00:30:29.493Z,55.40
2019-01-09T00:31:00.896Z,55.30
2019-01-09T00:31:32.339Z,55.30
2019-01-09T00:32:03.489Z,55.40
2019-01-09T00:32:34.638Z,55.40
2019-01-09T00:33:06.131Z,55.40
2019-01-09T00:33:37.289Z,55.40
2019-01-09T00:34:08.698Z,55.50
2019-01-09T00:34:39.842Z,55.60
2019-01-09T00:35:10.998Z,55.60
2019-01-09T00:35:42.161Z,55.50
2019-01-09T00:36:13.299Z,55.50
2019-01-09T00:36:44.746Z,55.50
2019-01-09T00:37:15.903Z,55.50
2019-01-09T00:37:47.054Z,55.50
2019-01-09T00:38:18.450Z,55.50
2019-01-09T00:38:49.890Z,55.50
2019-01-09T00:39:21.042Z,55.60
2019-01-09T00:39:52.187Z,55.50
2019-01-09T00:40:23.335Z,55.50
2019-01-09T00:40:54.484Z,55.50
2019-01-09T00:41:25.635Z,55.50
2019-01-09T00:41:56.779Z,55.40
2019-01-09T00:42:27.927Z,55.50
2019-01-09T00:42:59.073Z,55.50
2019-01-09T00:43:30.326Z,55.50
2019-01-09T00:44:01.577Z,55.50
2019-01-09T00:44:32.720Z,55.40
2019-01-09T00:45:03.873Z,55.40
2019-01-09T00:45:35.026Z,55.50
2019-01-09T00:46:06.172Z,55.50
2019-01-09T00:46:37.316Z,55.40
2019-01-09T00:47:08.481Z,55.30
2019-01-09T00:47:39.612Z,55.50
2019-01-09T00:48:10.763Z,56.00
2019-01-09T00:48:41.937Z,55.60
2019-01-09T00:49:13.088Z,55.60
2019-01-09T00:49:44.537Z,55.60
2019-01-09T00:50:15.684Z,55.70
2019-01-09T00:50:46.925Z,55.60
2019-01-09T00:51:18.076Z,55.50
2019-01-09T00:51:49.229Z,55.40
2019-01-09T00:52:20.381Z,55.30
2019-01-09T00:52:51.529Z,55.30
2019-01-09T00:53:22.693Z,55.50
2019-01-09T00:53:53.849Z,55.30
2019-01-09T00:54:25.010Z,55.30
2019-01-09T00:54:56.454Z,55.30
2019-01-09T00:55:27.606Z,55.40
2019-01-09T00:55:58.838Z,55.40
2019-01-09T00:56:29.995Z,55.30
2019-01-09T00:57:01.145Z,55.20
2019-01-09T00:57:32.290Z,55.10
2019-01-09T00:58:03.554Z,55.10
2019-01-09T00:58:34.983Z,55.00
2019-01-09T00:59:06.146Z,55.00
2019-01-09T00:59:37.291Z,55.00
2019-01-09T01:00:08.766Z,55.00
2019-01-09T01:00:40.218Z,55.00
2019-01-09T01:01:11.659Z,55.20
2019-01-09T01:01:42.811Z,55.30
2019-01-09T01:02:14.215Z,55.30
2019-01-09T01:02:45.363Z,55.20
2019-01-09T01:03:16.507Z,55.30
2019-01-09T01:03:48.410Z,55.30
2019-01-09T01:04:19.795Z,55.30
2019-01-09T01:04:50.944Z,55.40
2019-01-09T01:05:22.339Z,55.40
2019-01-09T01:05:53.488Z,55.40
2019-01-09T01:06:24.638Z,55.40
2019-01-09T01:06:55.839Z,55.40
2019-01-09T01:07:26.991Z,55.30
2019-01-09T01:07:58.388Z,55.30
2019-01-09T01:08:29.551Z,55.30
2019-01-09T01:09:00.813Z,55.40
2019-01-09T01:09:32.289Z,55.40
2019-01-09T01:10:03.436Z,55.40
2019-01-09T01:10:34.580Z,55.40
2019-01-09T01:11:05.728Z,55.30
2019-01-09T01:11:36.883Z,55.30
2019-01-09T01:12:08.032Z,55.30
2019-01-09T01:12:39.477Z,55.20
2019-01-09T01:13:10.629Z,55.20
2019-01-09T01:13:41.811Z,55.20
2019-01-09T01:14:12.965Z,55.10
2019-01-09T01:14:44.117Z,55.10
2019-01-09T01:15:15.541Z,55.20
2019-01-09T01:15:46.977Z,55.20
2019-01-09T01:16:18.125Z,55.30
2019-01-09T01:16:49.319Z,55.30
2019-01-09T01:17:20.505Z,55.30
2019-01-09T01:17:51.649Z,55.30
2019-01-09T01:18:22.799Z,55.30
2019-01-09T01:18:54.274Z,55.30
2019-01-09T01:19:25.523Z,55.30
2019-01-09T01:19:56.670Z,55.30
2019-01-09T01:20:27.824Z,55.30
2019-01-09T01:20:59.295Z,55.20
2019-01-09T01:21:30.450Z,55.20
2019-01-09T01:22:01.591Z,55.30
2019-01-09T01:22:32.748Z,55.30
2019-01-09T01:23:03.883Z,55.30
2019-01-09T01:23:35.354Z,55.30
2019-01-09T01:24:06.519Z,55.30
2019-01-09T01:24:37.926Z,55.30
2019-01-09T01:25:09.359Z,55.30
2019-01-09T01:25:40.507Z,55.40
2019-01-09T01:26:11.651Z,55.40
2019-01-09T01:26:42.799Z,55.30
2019-01-09T01:27:13.949Z,55.40
2019-01-09T01:27:45.412Z,55.40
2019-01-09T01:28:16.563Z,55.40
2019-01-09T01:28:47.989Z,55.50
2019-01-09T01:29:19.147Z,55.40
2019-01-09T01:29:50.293Z,55.50
2019-01-09T01:30:21.788Z,55.40
2019-01-09T01:30:52.935Z,55.40
2019-01-09T01:31:24.084Z,55.40
2019-01-09T01:31:55.591Z,55.30
2019-01-09T01:32:27.028Z,55.20
2019-01-09T01:32:58.183Z,55.20
2019-01-09T01:33:29.333Z,55.20
2019-01-09T01:34:00.505Z,55.10
2019-01-09T01:34:31.656Z,55.20
2019-01-09T01:35:02.808Z,55.20
2019-01-09T01:35:33.953Z,55.10
2019-01-09T01:36:05.100Z,55.00
2019-01-09T01:36:36.248Z,55.00
2019-01-09T01:37:07.629Z,55.00
2019-01-09T01:37:38.777Z,55.10
2019-01-09T01:38:09.941Z,55.10
2019-01-09T01:38:41.154Z,55.20
2019-01-09T01:39:12.637Z,55.20
2019-01-09T01:39:43.776Z,55.20
2019-01-09T01:40:14.925Z,55.20
2019-01-09T01:40:46.078Z,55.30
2019-01-09T01:41:17.229Z,55.20
2019-01-09T01:41:48.694Z,55.20
2019-01-09T01:42:19.841Z,55.20
2019-01-09T01:42:50.997Z,55.20
2019-01-09T01:43:22.145Z,55.20
2019-01-09T01:43:53.614Z,55.20
2019-01-09T01:44:24.781Z,55.20
2019-01-09T01:44:55.922Z,55.30
2019-01-09T01:45:27.065Z,55.30
2019-01-09T01:45:58.211Z,55.20
2019-01-09T01:46:29.362Z,55.20
2019-01-09T01:47:00.815Z,55.20
2019-01-09T01:47:31.963Z,55.30
2019-01-09T01:48:03.118Z,55.30
2019-01-09T01:48:34.322Z,55.30
2019-01-09T01:49:05.463Z,55.30
2019-01-09T01:49:36.644Z,55.30
2019-01-09T01:50:07.787Z,55.30
2019-01-09T01:50:38.939Z,55.30
2019-01-09T01:51:10.363Z,55.40
2019-01-09T01:51:41.511Z,55.30
2019-01-09T01:52:12.658Z,55.40
2019-01-09T01:52:43.803Z,55.40
2019-01-09T01:53:14.951Z,55.40
2019-01-09T01:53:46.105Z,55.40
2019-01-09T01:54:17.251Z,55.40
2019-01-09T01:54:48.424Z,55.50
2019-01-09T01:55:19.571Z,55.40
2019-01-09T01:55:50.720Z,55.40
2019-01-09T01:56:21.864Z,55.50
2019-01-09T01:56:53.016Z,55.50
2019-01-09T01:57:24.160Z,55.40
2019-01-09T01:57:55.328Z,55.30
2019-01-09T01:58:26.476Z,55.20
2019-01-09T01:58:57.627Z,55.20
2019-01-09T01:59:29.057Z,55.20
2019-01-09T02:00:00.249Z,55.10
2019-01-09T02:00:31.429Z,55.20
2019-01-09T02:01:02.577Z,55.30
2019-01-09T02:01:33.739Z,55.30
2019-01-09T02:02:04.884Z,55.30
2019-01-09T02:02:36.041Z,55.30
2019-01-09T02:03:07.477Z,55.30
2019-01-09T02:03:38.627Z,55.30
2019-01-09T02:04:10.058Z,55.30
2019-01-09T02:04:41.226Z,55.30
2019-01-09T02:05:12.382Z,55.30
2019-01-09T02:05:43.538Z,55.30
2019-01-09T02:06:14.683Z,55.30
2019-01-09T02:06:45.826Z,55.40
2019-01-09T02:07:17.231Z,55.30
2019-01-09T02:07:48.387Z,55.30
2019-01-09T02:08:19.530Z,55.40
2019-01-09T02:08:50.690Z,55.40
2019-01-09T02:09:21.843Z,55.40
2019-01-09T02:09:53.286Z,55.30
2019-01-09T02:10:24.443Z,55.30
2019-01-09T02:10:55.587Z,55.30
2019-01-09T02:11:26.739Z,55.20
2019-01-09T02:11:57.895Z,55.20
2019-01-09T02:12:29.046Z,55.20
2019-01-09T02:13:00.203Z,55.20
2019-01-09T02:13:31.621Z,55.20
2019-01-09T02:14:02.768Z,55.10
2019-01-09T02:14:34.174Z,55.00
2019-01-09T02:15:05.337Z,55.00
2019-01-09T02:15:36.744Z,55.00
2019-01-09T02:16:07.891Z,54.90
2019-01-09T02:16:39.309Z,55.00
2019-01-09T02:17:10.455Z,54.90
2019-01-09T02:17:41.614Z,55.00
2019-01-09T02:18:12.752Z,55.00
2019-01-09T02:18:44.237Z,55.00
2019-01-09T02:19:15.387Z,55.00
2019-01-09T02:19:46.555Z,55.10
2019-01-09T02:20:18.041Z,55.00
2019-01-09T02:20:49.194Z,55.10
2019-01-09T02:21:20.610Z,55.10
2019-01-09T02:21:51.757Z,55.10
2019-01-09T02:22:22.989Z,55.10
2019-01-09T02:22:54.136Z,55.00
2019-01-09T02:23:25.637Z,55.10
2019-01-09T02:23:57.077Z,55.10
2019-01-09T02:24:28.229Z,55.10
2019-01-09T02:24:59.420Z,55.20
2019-01-09T02:25:30.654Z,55.10
2019-01-09T02:26:01.801Z,55.10
2019-01-09T02:26:32.951Z,55.20
2019-01-09T02:27:04.101Z,55.20
2019-01-09T02:27:35.254Z,55.10
2019-01-09T02:28:06.401Z,55.10
2019-01-09T02:28:37.558Z,55.10
2019-01-09T02:29:08.706Z,55.10
2019-01-09T02:29:40.135Z,55.20
2019-01-09T02:30:11.667Z,55.20
2019-01-09T02:30:42.815Z,55.20
2019-01-09T02:31:13.970Z,55.20
2019-01-09T02:31:45.130Z,55.20
2019-01-09T02:32:16.273Z,55.20
2019-01-09T02:32:47.427Z,55.20
2019-01-09T02:33:18.579Z,55.30
2019-01-09T02:33:49.736Z,55.30
2019-01-09T02:34:21.207Z,55.30
2019-01-09T02:34:52.355Z,55.30
2019-01-09T02:35:23.772Z,55.30
2019-01-09T02:35:54.920Z,55.30
2019-01-09T02:36:26.067Z,55.30
2019-01-09T02:36:57.216Z,55.30
2019-01-09T02:37:28.368Z,55.30
2019-01-09T02:37:59.519Z,55.30
2019-01-09T02:38:30.671Z,55.30
2019-01-09T02:39:01.823Z,55.40
2019-01-09T02:39:32.969Z,55.30
2019-01-09T02:40:04.453Z,55.20
2019-01-09T02:40:35.624Z,55.10
2019-01-09T02:41:06.773Z,55.20
2019-01-09T02:41:37.929Z,55.10
2019-01-09T02:42:09.069Z,55.10
2019-01-09T02:42:40.221Z,55.10
2019-01-09T02:43:11.368Z,55.10
2019-01-09T02:43:42.533Z,55.10
2019-01-09T02:44:13.681Z,55.20
2019-01-09T02:44:44.829Z,55.10
2019-01-09T02:45:15.981Z,55.00
2019-01-09T02:45:47.153Z,55.70
2019-01-09T02:46:18.948Z,55.00
2019-01-09T02:46:50.238Z,55.00
2019-01-09T02:47:21.513Z,55.00
2019-01-09T02:47:53.157Z,55.20
2019-01-09T02:48:24.585Z,55.20
2019-01-09T02:48:55.736Z,55.10
2019-01-09T02:49:26.881Z,55.20
2019-01-09T02:49:58.115Z,55.10
2019-01-09T02:50:29.361Z,55.00
2019-01-09T02:51:00.849Z,55.00
2019-01-09T02:51:32.291Z,54.90
2019-01-09T02:52:03.447Z,55.00
2019-01-09T02:52:34.604Z,55.00
2019-01-09T02:53:05.755Z,55.00
2019-01-09T02:53:37.183Z,54.90
2019-01-09T02:54:08.332Z,54.90
2019-01-09T02:54:39.486Z,54.80
2019-01-09T02:55:10.634Z,55.30
2019-01-09T02:55:41.793Z,54.70
2019-01-09T02:56:12.950Z,54.80
2019-01-09T02:56:44.104Z,54.90
2019-01-09T02:57:15.238Z,54.90
2019-01-09T02:57:56.292Z,54.90
2019-01-09T02:58:19.259Z,54.90
2019-01-09T02:58:50.660Z,54.90
2019-01-09T02:59:21.804Z,54.90
2019-01-09T02:59:52.954Z,54.90
2019-01-09T03:00:24.103Z,54.70
2019-01-09T03:00:55.265Z,54.80
2019-01-09T03:01:26.412Z,54.90
2019-01-09T03:01:57.562Z,54.90
2019-01-09T03:02:28.704Z,54.90
2019-01-09T03:03:00.108Z,54.80
2019-01-09T03:03:31.269Z,54.90
2019-01-09T03:04:02.676Z,55.00
2019-01-09T03:04:34.218Z,55.00
2019-01-09T03:05:05.364Z,55.00
2019-01-09T03:05:36.524Z,55.00
2019-01-09T03:06:07.684Z,54.90
2019-01-09T03:06:38.841Z,54.90
2019-01-09T03:07:09.985Z,54.90
2019-01-09T03:07:41.137Z,55.10
2019-01-09T03:08:12.361Z,55.00
2019-01-09T03:08:45.277Z,55.10
2019-01-09T03:09:16.425Z,55.00
2019-01-09T03:09:47.735Z,55.10
2019-01-09T03:10:19.006Z,55.10
2019-01-09T03:10:50.155Z,55.10
2019-01-09T03:11:21.443Z,55.20
2019-01-09T03:11:52.650Z,55.20
2019-01-09T03:12:23.806Z,55.20
2019-01-09T03:12:54.979Z,55.10
2019-01-09T03:13:26.394Z,55.20
2019-01-09T03:13:57.843Z,55.20
2019-01-09T03:14:29.059Z,55.20
2019-01-09T03:15:00.425Z,55.20
2019-01-09T03:15:31.736Z,55.30
2019-01-09T03:16:02.900Z,55.20
2019-01-09T03:16:34.080Z,55.20
2019-01-09T03:17:05.234Z,55.10
2019-01-09T03:17:36.667Z,55.10
2019-01-09T03:18:08.103Z,55.00
2019-01-09T03:18:39.253Z,55.00
2019-01-09T03:19:10.377Z,55.00
2019-01-09T03:19:41.547Z,55.00
2019-01-09T03:20:12.710Z,55.00
2019-01-09T03:20:44.164Z,55.00
2019-01-09T03:21:15.314Z,55.10
2019-01-09T03:21:46.488Z,55.10
2019-01-09T03:22:17.635Z,55.10
2019-01-09T03:22:48.791Z,55.00
2019-01-09T03:23:19.939Z,55.70
2019-01-09T03:23:51.087Z,55.00
2019-01-09T03:24:22.239Z,54.90
2019-01-09T03:24:53.707Z,54.90
2019-01-09T03:25:24.864Z,54.90
2019-01-09T03:25:56.013Z,55.10
2019-01-09T03:26:27.224Z,55.00
2019-01-09T03:26:59.339Z,55.10
2019-01-09T03:27:30.493Z,55.10
2019-01-09T03:28:01.640Z,55.80
2019-01-09T03:28:32.784Z,55.10
2019-01-09T03:29:03.928Z,55.10
2019-01-09T03:29:35.076Z,55.10
2019-01-09T03:30:06.224Z,55.10
2019-01-09T03:30:37.435Z,55.00
2019-01-09T03:31:08.641Z,55.00
2019-01-09T03:31:39.813Z,54.90
2019-01-09T03:32:10.961Z,54.80
2019-01-09T03:32:42.109Z,54.70
2019-01-09T03:33:13.262Z,54.80
2019-01-09T03:33:45.940Z,54.70
2019-01-09T03:34:17.257Z,54.70
2019-01-09T03:34:48.457Z,54.70
2019-01-09T03:35:19.609Z,54.70
2019-01-09T03:35:51.021Z,54.70
2019-01-09T03:36:22.456Z,54.60
2019-01-09T03:36:53.624Z,54.70
2019-01-09T03:37:25.096Z,54.90
2019-01-09T03:37:56.357Z,54.80
2019-01-09T03:38:27.506Z,54.80
2019-01-09T03:38:58.729Z,54.90
2019-01-09T03:39:29.889Z,54.90
2019-01-09T03:40:01.352Z,55.00
2019-01-09T03:40:32.498Z,54.90
2019-01-09T03:41:03.645Z,54.90
2019-01-09T03:41:35.106Z,54.90
2019-01-09T03:42:06.279Z,55.00
2019-01-09T03:42:37.626Z,54.90
2019-01-09T03:43:08.843Z,54.90
2019-01-09T03:43:39.994Z,54.90
2019-01-09T03:44:11.545Z,54.90
2019-01-09T03:44:43.040Z,54.90
2019-01-09T03:45:14.314Z,54.90
2019-01-09T03:45:45.465Z,54.90
2019-01-09T03:46:17.183Z,54.90
2019-01-09T03:46:48.455Z,55.00
2019-01-09T03:47:19.623Z,55.00
2019-01-09T03:47:50.774Z,54.90
2019-01-09T03:48:22.244Z,55.00
2019-01-09T03:48:53.594Z,55.00
2019-01-09T03:49:24.747Z,55.00
2019-01-09T03:49:56.261Z,55.00
2019-01-09T03:50:27.676Z,55.00
2019-01-09T03:50:58.831Z,55.00
2019-01-09T03:51:30.120Z,55.00
2019-01-09T03:52:01.927Z,55.00
2019-01-09T03:52:33.156Z,55.00
2019-01-09T03:53:04.308Z,55.00
2019-01-09T03:53:35.461Z,55.00
2019-01-09T03:54:06.610Z,55.00
2019-01-09T03:54:37.758Z,55.00
2019-01-09T03:55:08.906Z,55.00
2019-01-09T03:55:40.059Z,55.00
2019-01-09T03:56:11.537Z,55.00
2019-01-09T03:56:42.689Z,55.00
2019-01-09T03:57:13.840Z,55.10
2019-01-09T03:57:45.006Z,55.00
2019-01-09T03:58:16.163Z,55.00
2019-01-09T03:58:47.300Z,55.00
2019-01-09T03:59:18.452Z,55.10
2019-01-09T03:59:49.604Z,55.00
2019-01-09T04:00:21.102Z,55.10
2019-01-09T04:00:52.241Z,55.10
2019-01-09T04:01:23.392Z,55.20
2019-01-09T04:01:54.546Z,55.10
2019-01-09T04:02:25.698Z,55.20
2019-01-09T04:02:57.152Z,55.20
2019-01-09T04:03:28.306Z,55.20
2019-01-09T04:03:59.482Z,55.30
2019-01-09T04:04:30.630Z,55.30
2019-01-09T04:05:01.824Z,55.30
2019-01-09T04:05:33.023Z,55.30
2019-01-09T04:06:04.434Z,55.30
2019-01-09T04:06:41.854Z,55.20
2019-01-09T04:07:08.474Z,55.30
2019-01-09T04:07:39.981Z,55.20
2019-01-09T04:08:11.138Z,55.20
2019-01-09T04:08:42.820Z,55.20
2019-01-09T04:09:14.002Z,55.10
2019-01-09T04:09:45.422Z,55.10
2019-01-09T04:10:16.563Z,55.00
2019-01-09T04:10:47.716Z,55.10
2019-01-09T04:11:18.867Z,55.00
2019-01-09T04:11:50.352Z,55.00
2019-01-09T04:12:21.791Z,55.00
2019-01-09T04:12:52.975Z,55.00
2019-01-09T04:13:24.148Z,55.00
2019-01-09T04:13:55.588Z,55.00
2019-01-09T04:14:26.735Z,55.00
2019-01-09T04:14:57.886Z,55.00
2019-01-09T04:15:29.035Z,54.90
2019-01-09T04:16:00.534Z,54.80
2019-01-09T04:16:31.684Z,54.80
2019-01-09T04:17:03.084Z,54.80
2019-01-09T04:17:34.232Z,54.80
2019-01-09T04:18:05.396Z,54.90
2019-01-09T04:18:36.544Z,54.90
2019-01-09T04:19:07.692Z,54.90
2019-01-09T04:19:38.842Z,54.90
2019-01-09T04:20:09.989Z,54.90
2019-01-09T04:20:41.132Z,54.90
2019-01-09T04:21:12.289Z,54.80
2019-01-09T04:21:43.477Z,54.90
2019-01-09T04:22:14.629Z,54.90
2019-01-09T04:22:45.773Z,54.90
2019-01-09T04:23:16.944Z,54.90
2019-01-09T04:23:48.093Z,55.00
2019-01-09T04:24:19.240Z,55.00
2019-01-09T04:24:50.650Z,55.00
2019-01-09T04:25:21.797Z,55.00
2019-01-09T04:25:53.215Z,55.00
2019-01-09T04:26:24.363Z,55.00
2019-01-09T04:26:55.787Z,55.00
2019-01-09T04:27:26.933Z,55.00
2019-01-09T04:27:58.091Z,55.00
2019-01-09T04:28:29.263Z,55.00
2019-01-09T04:29:00.411Z,55.00
2019-01-09T04:29:31.846Z,55.10
2019-01-09T04:30:02.999Z,54.90
2019-01-09T04:30:34.145Z,54.90
2019-01-09T04:31:05.304Z,54.90
2019-01-09T04:31:36.452Z,55.00
2019-01-09T04:32:07.611Z,55.00
2019-01-09T04:32:38.869Z,55.00
2019-01-09T04:33:10.020Z,54.90
2019-01-09T04:33:41.491Z,54.90
2019-01-09T04:34:12.953Z,54.90
2019-01-09T04:34:44.169Z,55.00
2019-01-09T04:35:15.316Z,54.90
2019-01-09T04:35:46.466Z,55.00
2019-01-09T04:36:17.961Z,54.90
2019-01-09T04:36:51.690Z,54.90
2019-01-09T04:37:22.278Z,55.00
2019-01-09T04:37:53.424Z,55.00
2019-01-09T04:38:24.696Z,55.00
2019-01-09T04:38:55.839Z,55.00
2019-01-09T04:39:26.992Z,55.00
2019-01-09T04:39:58.145Z,55.00
2019-01-09T04:40:29.293Z,55.00
2019-01-09T04:41:00.689Z,55.00
2019-01-09T04:41:31.836Z,55.00
2019-01-09T04:42:02.988Z,55.00
2019-01-09T04:42:34.136Z,55.00
2019-01-09T04:43:05.293Z,55.00
2019-01-09T04:43:36.478Z,55.00
2019-01-09T04:44:07.887Z,55.00
2019-01-09T04:44:39.030Z,55.00
2019-01-09T04:45:10.187Z,55.10
2019-01-09T04:45:41.332Z,55.00
2019-01-09T04:46:12.808Z,55.00
2019-01-09T04:46:44.251Z,55.00
2019-01-09T04:47:15.402Z,55.00
2019-01-09T04:47:46.814Z,55.00
2019-01-09T04:48:17.973Z,55.00
2019-01-09T04:48:49.131Z,55.00
2019-01-09T04:49:20.287Z,55.00
2019-01-09T04:49:51.748Z,55.00
2019-01-09T04:50:22.894Z,55.00
2019-01-09T04:50:54.041Z,55.00
2019-01-09T04:51:25.200Z,54.90
2019-01-09T04:51:56.683Z,54.90
2019-01-09T04:52:27.838Z,54.90
2019-01-09T04:52:58.990Z,54.90
2019-01-09T04:53:30.144Z,54.90
2019-01-09T04:54:01.305Z,54.80
2019-01-09T04:54:32.462Z,54.80
2019-01-09T04:55:03.602Z,54.80
2019-01-09T04:55:34.758Z,54.70
2019-01-09T04:56:05.923Z,54.70
2019-01-09T04:56:37.134Z,54.70
2019-01-09T04:57:08.278Z,54.70
2019-01-09T04:57:39.435Z,54.70
2019-01-09T04:58:10.584Z,54.80
2019-01-09T04:58:41.747Z,54.70
2019-01-09T04:59:12.901Z,54.70
2019-01-09T04:59:44.058Z,54.80
2019-01-09T05:00:15.482Z,54.90
2019-01-09T05:00:46.628Z,54.80
2019-01-09T05:01:18.033Z,54.80
2019-01-09T05:01:49.188Z,54.80
2019-01-09T05:02:20.331Z,54.90
2019-01-09T05:02:51.484Z,54.90
2019-01-09T05:03:22.635Z,54.90
2019-01-09T05:03:53.816Z,54.90
2019-01-09T05:04:24.968Z,54.90
2019-01-09T05:04:56.124Z,54.90
2019-01-09T05:05:27.588Z,54.90
2019-01-09T05:05:58.737Z,54.90
2019-01-09T05:06:29.884Z,55.00
2019-01-09T05:07:01.066Z,55.00
2019-01-09T05:07:32.329Z,55.00
2019-01-09T05:08:03.540Z,55.00
2019-01-09T05:08:34.753Z,55.00
2019-01-09T05:09:05.931Z,54.90
2019-01-09T05:09:37.084Z,55.00
2019-01-09T05:10:08.233Z,55.00
2019-01-09T05:10:39.388Z,55.00
2019-01-09T05:11:10.840Z,55.00
2019-01-09T05:11:41.994Z,55.00
2019-01-09T05:12:13.150Z,55.00
2019-01-09T05:12:44.302Z,55.00
2019-01-09T05:13:15.450Z,55.00
2019-01-09T05:13:46.602Z,55.00
2019-01-09T05:14:17.778Z,55.00
2019-01-09T05:14:48.934Z,55.00
2019-01-09T05:15:20.077Z,55.00
2019-01-09T05:15:51.231Z,55.00
2019-01-09T05:16:22.377Z,55.00
2019-01-09T05:16:53.554Z,55.00
2019-01-09T05:17:24.690Z,55.00
2019-01-09T05:17:55.846Z,55.00
2019-01-09T05:18:27.007Z,55.00
2019-01-09T05:18:58.162Z,55.00
2019-01-09T05:19:30.119Z,55.00
2019-01-09T05:20:06.261Z,55.00
2019-01-09T05:20:37.798Z,55.00
2019-01-09T05:21:09.303Z,55.00
2019-01-09T05:21:40.577Z,55.00
2019-01-09T05:22:12.141Z,55.00
2019-01-09T05:22:43.583Z,55.00
2019-01-09T05:23:15.020Z,55.00
2019-01-09T05:23:46.175Z,55.00
2019-01-09T05:24:17.323Z,55.10
2019-01-09T05:24:48.496Z,55.00
2019-01-09T05:25:19.652Z,55.10
2019-01-09T05:25:50.800Z,55.10
2019-01-09T05:26:21.952Z,55.10
2019-01-09T05:26:53.436Z,55.10
2019-01-09T05:27:24.588Z,55.10
2019-01-09T05:27:55.752Z,55.20
2019-01-09T05:28:27.237Z,55.10
2019-01-09T05:28:58.734Z,55.10
2019-01-09T05:29:29.920Z,55.20
2019-01-09T05:30:01.068Z,55.10
2019-01-09T05:30:32.473Z,55.10
2019-01-09T05:31:07.717Z,55.10
2019-01-09T05:31:36.781Z,55.10
2019-01-09T05:32:07.940Z,55.00
2019-01-09T05:32:39.109Z,55.00
2019-01-09T05:33:10.257Z,55.00
2019-01-09T05:33:41.413Z,55.00
2019-01-09T05:34:12.569Z,55.00
2019-01-09T05:34:43.748Z,55.00
2019-01-09T05:35:14.902Z,54.90
2019-01-09T05:35:46.340Z,55.00
2019-01-09T05:36:17.494Z,55.00
2019-01-09T05:36:48.899Z,55.00
2019-01-09T05:37:20.338Z,55.00
2019-01-09T05:37:51.582Z,55.00
2019-01-09T05:38:22.729Z,55.00
2019-01-09T05:38:53.878Z,54.90
2019-01-09T05:39:25.374Z,54.90
2019-01-09T05:39:56.614Z,54.90
2019-01-09T05:40:27.758Z,54.90
2019-01-09T05:40:58.909Z,54.90
2019-01-09T05:41:30.074Z,54.90
2019-01-09T05:42:01.227Z,54.90
2019-01-09T05:42:32.364Z,54.80
2019-01-09T05:43:03.522Z,54.90
2019-01-09T05:43:34.671Z,54.80
2019-01-09T05:44:05.815Z,54.90
2019-01-09T05:44:36.971Z,54.80
2019-01-09T05:45:08.141Z,54.90
2019-01-09T05:45:39.291Z,55.00
2019-01-09T05:46:10.443Z,55.00
2019-01-09T05:46:41.593Z,55.00
2019-01-09T05:47:12.743Z,55.00
2019-01-09T05:47:43.894Z,55.10
2019-01-09T05:48:15.043Z,55.00
2019-01-09T05:48:46.184Z,55.00
2019-01-09T05:49:17.332Z,55.00
2019-01-09T05:49:48.788Z,55.00
2019-01-09T05:50:19.960Z,55.00
2019-01-09T05:50:51.453Z,55.00
2019-01-09T05:51:22.613Z,55.00
2019-01-09T05:51:53.828Z,55.00
2019-01-09T05:52:25.067Z,55.00
2019-01-09T05:52:56.215Z,55.00
2019-01-09T05:53:27.368Z,55.00
2019-01-09T05:53:58.516Z,55.00
2019-01-09T05:54:29.660Z,55.00
2019-01-09T05:55:00.819Z,55.00
2019-01-09T05:55:31.994Z,55.00
2019-01-09T05:56:03.469Z,55.00
2019-01-09T05:56:34.621Z,55.00
2019-01-09T05:57:05.772Z,55.00
2019-01-09T05:57:36.924Z,55.00
2019-01-09T05:58:08.401Z,55.00
2019-01-09T05:58:39.544Z,55.00
2019-01-09T05:59:10.694Z,55.00
2019-01-09T05:59:41.835Z,55.00
2019-01-09T06:00:12.986Z,55.00
2019-01-09T06:00:44.151Z,55.00
2019-01-09T06:01:15.305Z,55.00
2019-01-09T06:01:46.463Z,55.00
2019-01-09T06:02:17.602Z,55.60
2019-01-09T06:02:48.758Z,55.00
2019-01-09T06:03:19.902Z,55.00
2019-01-09T06:03:51.342Z,55.00
2019-01-09T06:04:22.494Z,55.00
2019-01-09T06:04:53.647Z,55.00
2019-01-09T06:05:24.798Z,55.00
2019-01-09T06:05:56.271Z,55.00
2019-01-09T06:06:27.432Z,55.00
2019-01-09T06:06:58.579Z,55.10
2019-01-09T06:07:29.718Z,55.00
2019-01-09T06:08:00.907Z,55.10
2019-01-09T06:08:32.060Z,55.00
2019-01-09T06:09:03.207Z,55.00
2019-01-09T06:09:34.691Z,55.00
2019-01-09T06:10:05.836Z,55.00
2019-01-09T06:10:37.263Z,55.00
2019-01-09T06:11:08.994Z,55.00
2019-01-09T06:11:40.187Z,55.00
2019-01-09T06:12:11.335Z,54.90
2019-01-09T06:12:42.803Z,54.90
2019-01-09T06:13:13.952Z,54.90
2019-01-09T06:13:45.096Z,54.90
2019-01-09T06:14:16.240Z,54.90
2019-01-09T06:14:47.387Z,54.80
2019-01-09T06:15:18.537Z,54.80
2019-01-09T06:15:49.697Z,54.80
2019-01-09T06:16:20.871Z,54.80
2019-01-09T06:16:52.023Z,54.80
2019-01-09T06:17:23.168Z,54.80
2019-01-09T06:17:54.617Z,54.80
2019-01-09T06:18:25.760Z,54.80
2019-01-09T06:18:56.916Z,54.80
2019-01-09T06:19:28.121Z,54.70
2019-01-09T06:19:59.358Z,54.70
2019-01-09T06:20:30.500Z,54.70
2019-01-09T06:21:02.011Z,54.80
2019-01-09T06:21:33.162Z,54.70
2019-01-09T06:22:04.304Z,54.80
2019-01-09T06:22:35.821Z,54.70
2019-01-09T06:23:06.974Z,54.80
2019-01-09T06:23:38.118Z,54.80
2019-01-09T06:24:09.267Z,54.80
2019-01-09T06:24:40.414Z,54.80
2019-01-09T06:25:11.573Z,54.70
2019-01-09T06:25:42.719Z,54.80
2019-01-09T06:26:14.395Z,54.80
2019-01-09T06:26:45.582Z,54.80
2019-01-09T06:27:16.738Z,54.90
2019-01-09T06:27:47.886Z,54.90
2019-01-09T06:28:19.034Z,54.80
2019-01-09T06:28:50.194Z,54.90
2019-01-09T06:29:21.330Z,54.90
2019-01-09T06:29:53.665Z,55.00
2019-01-09T06:30:24.851Z,55.00
2019-01-09T06:30:56.016Z,55.00
2019-01-09T06:31:27.644Z,54.90
2019-01-09T06:31:58.787Z,54.90
2019-01-09T06:32:30.241Z,54.80
2019-01-09T06:33:01.393Z,54.90
2019-01-09T06:33:32.540Z,54.80
2019-01-09T06:34:03.691Z,54.80
2019-01-09T06:34:35.171Z,54.80
2019-01-09T06:35:06.318Z,54.80
2019-01-09T06:35:37.737Z,54.90
2019-01-09T06:36:08.904Z,54.80
2019-01-09T06:36:40.056Z,54.80
2019-01-09T06:37:11.220Z,54.80
2019-01-09T06:37:42.364Z,54.90
2019-01-09T06:38:13.508Z,54.90
2019-01-09T06:38:44.656Z,55.00
2019-01-09T06:39:15.816Z,54.90
2019-01-09T06:39:46.972Z,54.90
2019-01-09T06:40:18.116Z,54.90
2019-01-09T06:40:49.268Z,54.90
2019-01-09T06:41:20.442Z,55.00
2019-01-09T06:41:51.592Z,54.90
2019-01-09T06:42:22.744Z,54.90